Flight Track Log - Related Links

Times and Time Zones

All times are in EDT time to prevent confusion due to time zone crossing. See the FIN666 flight status page for this flight to view local times or setup timezone preferences in your user account.


Time Position Orientation Groundspeed Altitude Reporting Facility
EDT Latitude Longitude Course Direction KTS MPH feet Rate Location/Type
Fri 08:37:00 AM 55.9164 13.2747 49° Northeast  Level Estimated
Fri 08:38:00 AM 55.9905 13.4309 50° Northeast  Level Estimated
Fri 08:39:00 AM 56.0644 13.5877 50° Northeast  Level Estimated
Fri 08:40:00 AM 56.1381 13.7451 50° Northeast  Level Estimated
Fri 08:41:00 AM 56.2211 13.9235 50° Northeast  Level Estimated
Fri 08:42:00 AM 56.3039 14.1027 50° Northeast  Level Estimated
Fri 08:43:00 AM 56.3863 14.2826 50° Northeast  Level Estimated
Fri 08:44:00 AM 56.4686 14.4634 50° Northeast  Level Estimated
Fri 08:45:00 AM 56.5505 14.6449 51° Northeast  Level Estimated
Fri 08:46:00 AM 56.6322 14.8272 51° Northeast  Level Estimated
Fri 08:47:00 AM 56.7087 14.9992 51° Northeast  Level Estimated
Fri 08:48:00 AM 56.7850 15.1719 51° Northeast  Level Estimated
Fri 08:49:00 AM 56.8501 15.3205 51° Northeast  Level Estimated
Fri 08:50:00 AM 56.9151 15.4696 51° Northeast  Level Estimated
Fri 08:51:00 AM 56.9799 15.6192 51° Northeast  Level Estimated
Fri 08:52:00 AM 57.0446 15.7693 52° Northeast  Level Estimated
Fri 08:53:00 AM 57.1090 15.9199 52° Northeast  Level Estimated
Fri 08:54:00 AM 57.1733 16.0711 52° Northeast  Level Estimated
Fri 08:55:00 AM 57.2374 16.2228 52° Northeast  Level Estimated
Fri 08:56:00 AM 57.3013 16.3750 52° Northeast  Level Estimated
Fri 08:57:00 AM 57.3650 16.5278 52° Northeast  Level Estimated
Fri 08:58:00 AM 57.4286 16.6811 52° Northeast  Level Estimated
Fri 08:59:00 AM 57.4919 16.8349 52° Northeast  Level Estimated
Fri 09:00:00 AM 57.5551 16.9893 53° Northeast  Level Estimated
Fri 09:01:00 AM 57.6181 17.1442 53° Northeast  Level Estimated
Fri 09:02:00 AM 57.6809 17.2996 53° Northeast  Level Estimated
Fri 09:03:00 AM 57.7435 17.4556 53° Northeast  Level Estimated
Fri 09:04:00 AM 57.8059 17.6121 53° Northeast  Level Estimated
Fri 09:05:00 AM 57.8681 17.7691 53° Northeast  Level Estimated
Fri 09:06:00 AM 57.9301 17.9267 53° Northeast  Level Estimated
Fri 09:07:00 AM 57.9919 18.0849 54° Northeast  Level Estimated
Fri 09:08:00 AM 58.0535 18.2435 54° Northeast  Level Estimated
Fri 09:09:00 AM 58.1149 18.4028 54° Northeast  Level Estimated
Fri 09:10:00 AM 58.1762 18.5625 54° Northeast  Level Estimated
Fri 09:11:00 AM 58.2372 18.7229 54° Northeast  Level Estimated
Fri 09:12:00 AM 58.2980 18.8838 54° Northeast  Level Estimated
Fri 09:13:00 AM 58.3586 19.0452 54° Northeast  Level Estimated
Fri 09:14:00 AM 58.4190 19.2072 54° Northeast  Level Estimated
Fri 09:15:00 AM 58.4793 19.3697 55° Northeast  Level Estimated
Fri 09:16:00 AM 58.5393 19.5328 55° Northeast  Level Estimated
Fri 09:17:00 AM 58.5991 19.6965 55° Northeast  Level Estimated
Fri 09:18:00 AM 58.6586 19.8607 55° Northeast  Level Estimated
Fri 09:19:00 AM 58.7180 20.0255 55° Northeast  Level Estimated
Fri 09:20:00 AM 58.7772 20.1908 55° Northeast  Level Estimated
Fri 09:21:00 AM 58.8362 20.3567 55° Northeast  Level Estimated
Fri 09:22:00 AM 58.8949 20.5232 56° Northeast  Level Estimated
Fri 09:23:00 AM 58.9534 20.6902 56° Northeast  Level Estimated
Fri 09:24:00 AM 59.0117 20.8578 56° Northeast  Level Estimated
Fri 09:25:00 AM 59.0698 21.0260 56° Northeast  Level Estimated
Fri 09:26:00 AM 59.1277 21.1947 56° Northeast  Level Estimated
Fri 09:27:00 AM 59.1854 21.3641 56° Northeast  Level Estimated
Fri 09:28:00 AM 59.2428 21.5339 56° Northeast  Level Estimated
Fri 09:29:00 AM 59.3000 21.7044 57° Northeast  Level Estimated
Fri 09:30:00 AM 59.3570 21.8754 57° Northeast  Level Estimated
Fri 09:31:00 AM 59.4138 22.0470 57° Northeast  Level Estimated
Fri 09:32:00 AM 59.4703 22.2192 57° Northeast  Level Estimated
Fri 09:33:00 AM 59.5266 22.3920 57° Northeast  Level Estimated
Fri 09:34:00 AM 59.5827 22.5653 57° Northeast  Level Estimated
Fri 09:35:00 AM 59.6386 22.7392 58° Northeast  Level Estimated
Fri 09:36:00 AM 59.6942 22.9137 58° Northeast  Level Estimated
Fri 09:37:00 AM 59.7496 23.0887 58° Northeast  Level Estimated
Fri 09:38:00 AM 59.8047 23.2644 58° Northeast  Level Estimated
Fri 09:39:00 AM 59.8597 23.4406 58° Northeast  Level Estimated
Fri 09:40:00 AM 59.9143 23.6174 58° Northeast  Level Estimated
Fri 09:41:00 AM 59.9688 23.7948 58° Northeast  Level Estimated
Fri 09:42:00 AM 60.0230 23.9728 59° Northeast  Level Estimated
Fri 09:43:00 AM 60.0770 24.1513 59° Northeast  Level Estimated
Fri 09:44:00 AM 60.1307 24.3305 59° Northeast  Level Estimated
Fri 09:45:00 AM 60.1842 24.5102 59° Northeast  Level Estimated
Fri 09:46:00 AM 60.2374 24.6905 59° Northeast  Level Estimated
Fri 09:47:00 AM 60.2904 24.8714 59° Northeast  Level Estimated
Fri 09:48:00 AM 60.3172 24.9633 60° Northeast  Level Estimated

Login

Don't have an account? Register now (free) for customized features, flight alerts, and more!